sensor_id;sensor_type;location;lat;lon;timestamp;P1;P2;P0
45788;PMS7003;31492;54.856;26.318;2023-05-07T00:01:23;2;1.4;1
45788;PMS7003;31492;54.856;26.318;2023-05-07T00:06:25;1.9;1.4;1.1
45788;PMS7003;31492;54.856;26.318;2023-05-07T00:11:41;2.2;1.6;1.3
45788;PMS7003;31492;54.856;26.318;2023-05-07T00:16:35;1.8;1.7;1.5
45788;PMS7003;31492;54.856;26.318;2023-05-07T00:21:39;2.5;2;1.7
45788;PMS7003;31492;54.856;26.318;2023-05-07T00:26:15;2.9;2.2;1.8
45788;PMS7003;31492;54.856;26.318;2023-05-07T00:31:15;4.4;2.5;2.1
45788;PMS7003;31492;54.856;26.318;2023-05-07T00:36:35;3.8;2.8;2.1
45788;PMS7003;31492;54.856;26.318;2023-05-07T00:41:15;2.9;2.5;2
45788;PMS7003;31492;54.856;26.318;2023-05-07T00:46:15;2.3;1.9;1.6
45788;PMS7003;31492;54.856;26.318;2023-05-07T00:51:29;2;1.4;1
45788;PMS7003;31492;54.856;26.318;2023-05-07T00:56:15;3.2;2.3;1.8
45788;PMS7003;31492;54.856;26.318;2023-05-07T01:01:15;2.8;2.6;2.1
45788;PMS7003;31492;54.856;26.318;2023-05-07T01:06:15;2.8;2.2;2
45788;PMS7003;31492;54.856;26.318;2023-05-07T01:11:15;2.6;2.2;1.8
45788;PMS7003;31492;54.856;26.318;2023-05-07T01:16:31;2.2;1.8;1.4
45788;PMS7003;31492;54.856;26.318;2023-05-07T01:21:30;2.8;1.7;1.4
45788;PMS7003;31492;54.856;26.318;2023-05-07T01:26:22;2;1.8;1.3
45788;PMS7003;31492;54.856;26.318;2023-05-07T01:31:15;2.2;1.7;1.3
45788;PMS7003;31492;54.856;26.318;2023-05-07T01:36:35;2.4;2.3;1.8
45788;PMS7003;31492;54.856;26.318;2023-05-07T01:41:15;3;2.3;1.8
45788;PMS7003;31492;54.856;26.318;2023-05-07T01:46:26;2.4;2.1;1.8
45788;PMS7003;31492;54.856;26.318;2023-05-07T01:51:25;2.7;2.2;1.9
45788;PMS7003;31492;54.856;26.318;2023-05-07T01:56:21;2.6;2.2;1.8
45788;PMS7003;31492;54.856;26.318;2023-05-07T02:01:25;2.4;1.9;1.5
45788;PMS7003;31492;54.856;26.318;2023-05-07T02:06:25;2.5;2;1.6
45788;PMS7003;31492;54.856;26.318;2023-05-07T02:11:31;4.6;3.7;3
45788;PMS7003;31492;54.856;26.318;2023-05-07T02:16:29;4.3;3.1;2.6
45788;PMS7003;31492;54.856;26.318;2023-05-07T02:21:15;2.5;2;1.8
45788;PMS7003;31492;54.856;26.318;2023-05-07T02:26:25;2.6;2;1.7
45788;PMS7003;31492;54.856;26.318;2023-05-07T02:31:29;2.6;2;1.5
45788;PMS7003;31492;54.856;26.318;2023-05-07T02:36:15;2.3;1.7;1.1
45788;PMS7003;31492;54.856;26.318;2023-05-07T02:41:35;1.7;1.5;1.3
45788;PMS7003;31492;54.856;26.318;2023-05-07T02:46:29;2.3;2;1.4
45788;PMS7003;31492;54.856;26.318;2023-05-07T02:51:17;2.3;1.9;1.3
45788;PMS7003;31492;54.856;26.318;2023-05-07T02:56:39;2.5;1.7;1.2
45788;PMS7003;31492;54.856;26.318;2023-05-07T03:01:15;2.2;1.6;1.1
45788;PMS7003;31492;54.856;26.318;2023-05-07T03:06:31;2.1;1.9;1.4
45788;PMS7003;31492;54.856;26.318;2023-05-07T03:11:25;2;1.7;1.3
45788;PMS7003;31492;54.856;26.318;2023-05-07T03:16:25;3.5;2.5;2.1
45788;PMS7003;31492;54.856;26.318;2023-05-07T03:21:47;3.1;2.6;2.1
45788;PMS7003;31492;54.856;26.318;2023-05-07T03:26:39;3.4;2.7;2
45788;PMS7003;31492;54.856;26.318;2023-05-07T03:31:25;2.8;2.8;2.3
45788;PMS7003;31492;54.856;26.318;2023-05-07T03:36:29;3.5;3.1;2.4
45788;PMS7003;31492;54.856;26.318;2023-05-07T03:41:15;2.7;2.3;2
45788;PMS7003;31492;54.856;26.318;2023-05-07T03:46:23;2.2;1.9;1.5
45788;PMS7003;31492;54.856;26.318;2023-05-07T03:51:35;2.7;2.2;1.8
45788;PMS7003;31492;54.856;26.318;2023-05-07T03:56:29;2.6;1.9;1.3
45788;PMS7003;31492;54.856;26.318;2023-05-07T04:01:15;3.1;2.5;2.1
45788;PMS7003;31492;54.856;26.318;2023-05-07T04:06:39;9.8;8.9;7.3
45788;PMS7003;31492;54.856;26.318;2023-05-07T04:11:39;14;12.3;9.7
45788;PMS7003;31492;54.856;26.318;2023-05-07T04:16:15;9.5;8;6.5
45788;PMS7003;31492;54.856;26.318;2023-05-07T04:21:25;3.3;3.1;2.5
45788;PMS7003;31492;54.856;26.318;2023-05-07T04:26:15;3.6;3.2;2.7
45788;PMS7003;31492;54.856;26.318;2023-05-07T04:31:25;4.1;3.9;3.1
45788;PMS7003;31492;54.856;26.318;2023-05-07T04:36:35;4.5;3.5;2.8
45788;PMS7003;31492;54.856;26.318;2023-05-07T04:41:15;4.5;3.4;2.8
45788;PMS7003;31492;54.856;26.318;2023-05-07T04:46:15;2.6;2.2;1.7
45788;PMS7003;31492;54.856;26.318;2023-05-07T04:51:31;4.2;3.2;2.6
45788;PMS7003;31492;54.856;26.318;2023-05-07T04:56:27;9;7.7;5.6
45788;PMS7003;31492;54.856;26.318;2023-05-07T05:01:15;7.2;5.8;4.9
45788;PMS7003;31492;54.856;26.318;2023-05-07T05:06:15;4.1;3.6;3.1
45788;PMS7003;31492;54.856;26.318;2023-05-07T05:11:15;3.1;2.4;2
45788;PMS7003;31492;54.856;26.318;2023-05-07T05:16:21;3.2;2;1.5
45788;PMS7003;31492;54.856;26.318;2023-05-07T05:21:39;2.6;2.1;1.5
45788;PMS7003;31492;54.856;26.318;2023-05-07T05:26:25;3.1;2.1;1.6
45788;PMS7003;31492;54.856;26.318;2023-05-07T05:31:15;2.6;2.2;1.7
45788;PMS7003;31492;54.856;26.318;2023-05-07T05:36:35;2.7;2.2;1.7
45788;PMS7003;31492;54.856;26.318;2023-05-07T05:41:35;2.7;2;1.2
45788;PMS7003;31492;54.856;26.318;2023-05-07T05:46:15;13.1;10.8;7.4
45788;PMS7003;31492;54.856;26.318;2023-05-07T05:51:15;2.8;2.3;1.9
45788;PMS7003;31492;54.856;26.318;2023-05-07T05:56:43;2.5;1.8;1.3
45788;PMS7003;31492;54.856;26.318;2023-05-07T06:01:25;2.7;2;1.4
45788;PMS7003;31492;54.856;26.318;2023-05-07T06:06:29;2.2;1.6;1.3
45788;PMS7003;31492;54.856;26.318;2023-05-07T06:11:15;2.6;1.7;1.4
45788;PMS7003;31492;54.856;26.318;2023-05-07T06:16:31;2.3;1.9;1.5
45788;PMS7003;31492;54.856;26.318;2023-05-07T06:21:27;2.2;1.8;1.5
45788;PMS7003;31492;54.856;26.318;2023-05-07T06:26:33;2.3;1.8;1.3
45788;PMS7003;31492;54.856;26.318;2023-05-07T06:31:28;1.9;1.7;1.4
45788;PMS7003;31492;54.856;26.318;2023-05-07T06:36:39;2.2;1.6;1.2
45788;PMS7003;31492;54.856;26.318;2023-05-07T06:41:15;1.7;1.5;0.9
45788;PMS7003;31492;54.856;26.318;2023-05-07T06:46:15;2;1.8;1.5
45788;PMS7003;31492;54.856;26.318;2023-05-07T06:51:15;2.2;1.6;1.3
45788;PMS7003;31492;54.856;26.318;2023-05-07T06:56:47;2.4;2.1;1.7
45788;PMS7003;31492;54.856;26.318;2023-05-07T07:01:29;2.3;1.6;1.3
45788;PMS7003;31492;54.856;26.318;2023-05-07T07:06:47;1.7;1.2;0.8
45788;PMS7003;31492;54.856;26.318;2023-05-07T07:11:15;1.6;1.1;0.9
45788;PMS7003;31492;54.856;26.318;2023-05-07T07:16:29;2.1;1.4;1
45788;PMS7003;31492;54.856;26.318;2023-05-07T07:21:35;1.8;1.3;1
45788;PMS7003;31492;54.856;26.318;2023-05-07T07:26:16;1.8;1.4;1
45788;PMS7003;31492;54.856;26.318;2023-05-07T07:31:29;2.1;1.3;1
45788;PMS7003;31492;54.856;26.318;2023-05-07T07:36:35;1.6;1.3;0.9
45788;PMS7003;31492;54.856;26.318;2023-05-07T07:41:29;2.3;1.2;1
45788;PMS7003;31492;54.856;26.318;2023-05-07T07:46:29;1.6;1.2;1
45788;PMS7003;31492;54.856;26.318;2023-05-07T07:51:15;1.9;1.2;0.9
45788;PMS7003;31492;54.856;26.318;2023-05-07T07:56:15;1.4;1.2;0.8
45788;PMS7003;31492;54.856;26.318;2023-05-07T08:01:15;1.5;1.2;1
45788;PMS7003;31492;54.856;26.318;2023-05-07T08:06:21;1.8;1.6;1.4
45788;PMS7003;31492;54.856;26.318;2023-05-07T08:11:42;1.2;1;0.8
45788;PMS7003;31492;54.856;26.318;2023-05-07T08:16:15;1.6;1.3;0.9
45788;PMS7003;31492;54.856;26.318;2023-05-07T08:21:15;1.3;1.3;1
45788;PMS7003;31492;54.856;26.318;2023-05-07T08:26:23;2.1;1.4;1
45788;PMS7003;31492;54.856;26.318;2023-05-07T08:31:29;1.7;1.4;1.2
45788;PMS7003;31492;54.856;26.318;2023-05-07T08:36:15;1.4;1;0.9
45788;PMS7003;31492;54.856;26.318;2023-05-07T08:41:30;1.5;1.2;0.9
45788;PMS7003;31492;54.856;26.318;2023-05-07T08:46:40;1.6;1.2;1
45788;PMS7003;31492;54.856;26.318;2023-05-07T08:51:40;2.3;1.6;1.2
45788;PMS7003;31492;54.856;26.318;2023-05-07T08:56:16;1.5;1.3;0.9
45788;PMS7003;31492;54.856;26.318;2023-05-07T09:01:16;1.4;1.4;1.1
45788;PMS7003;31492;54.856;26.318;2023-05-07T09:06:25;1.2;0.9;0.8
45788;PMS7003;31492;54.856;26.318;2023-05-07T09:11:15;1.8;1.3;0.9
45788;PMS7003;31492;54.856;26.318;2023-05-07T09:16:22;2;1.9;1.6
45788;PMS7003;31492;54.856;26.318;2023-05-07T09:21:31;1.9;1.5;1.2
45788;PMS7003;31492;54.856;26.318;2023-05-07T09:26:43;1.7;1.4;1
45788;PMS7003;31492;54.856;26.318;2023-05-07T09:31:16;2.2;1.6;1.1
45788;PMS7003;31492;54.856;26.318;2023-05-07T09:36:26;1.6;1.3;0.9
45788;PMS7003;31492;54.856;26.318;2023-05-07T09:41:28;1.7;1.4;1
45788;PMS7003;31492;54.856;26.318;2023-05-07T09:46:16;1.5;1.3;1
45788;PMS7003;31492;54.856;26.318;2023-05-07T09:51:30;1.4;1.3;0.9
45788;PMS7003;31492;54.856;26.318;2023-05-07T09:56:30;1.6;1.3;1
45788;PMS7003;31492;54.856;26.318;2023-05-07T10:01:15;1.6;1.5;1.2
45788;PMS7003;31492;54.856;26.318;2023-05-07T10:06:52;1.4;1.4;1.2
45788;PMS7003;31492;54.856;26.318;2023-05-07T10:11:29;1.9;1.5;1.1
45788;PMS7003;31492;54.856;26.318;2023-05-07T10:16:15;1.7;1.3;1.1
45788;PMS7003;31492;54.856;26.318;2023-05-07T10:21:30;2;1.4;1.1
45788;PMS7003;31492;54.856;26.318;2023-05-07T10:26:16;1.9;1.8;1.5
45788;PMS7003;31492;54.856;26.318;2023-05-07T10:31:21;1.1;1.1;0.9
45788;PMS7003;31492;54.856;26.318;2023-05-07T10:36:30;1.8;1.6;1.1
45788;PMS7003;31492;54.856;26.318;2023-05-07T10:41:36;1.9;1.5;0.9
45788;PMS7003;31492;54.856;26.318;2023-05-07T10:46:28;1.4;1.3;1
45788;PMS7003;31492;54.856;26.318;2023-05-07T10:51:30;1.7;1.3;0.9
45788;PMS7003;31492;54.856;26.318;2023-05-07T10:56:30;1.9;1.6;1.1
45788;PMS7003;31492;54.856;26.318;2023-05-07T11:01:16;1.4;1.2;0.9
45788;PMS7003;31492;54.856;26.318;2023-05-07T11:06:36;1.4;1;0.8
45788;PMS7003;31492;54.856;26.318;2023-05-07T11:11:43;1.7;1.1;0.9
45788;PMS7003;31492;54.856;26.318;2023-05-07T11:16:30;1.5;1.2;1
45788;PMS7003;31492;54.856;26.318;2023-05-07T11:21:56;1.5;1.3;1
45788;PMS7003;31492;54.856;26.318;2023-05-07T11:26:15;1.2;1.1;0.8
45788;PMS7003;31492;54.856;26.318;2023-05-07T11:31:17;1.4;1.2;0.8
45788;PMS7003;31492;54.856;26.318;2023-05-07T11:36:16;1.4;1;0.8
45788;PMS7003;31492;54.856;26.318;2023-05-07T11:41:16;1.9;1.3;1.1
45788;PMS7003;31492;54.856;26.318;2023-05-07T11:46:22;1.7;1.2;0.8
45788;PMS7003;31492;54.856;26.318;2023-05-07T11:51:30;1.5;1.2;1
45788;PMS7003;31492;54.856;26.318;2023-05-07T11:56:40;1.2;1.1;1
45788;PMS7003;31492;54.856;26.318;2023-05-07T12:01:16;1.3;0.9;0.6
45788;PMS7003;31492;54.856;26.318;2023-05-07T12:06:30;1.9;1.4;1.2
45788;PMS7003;31492;54.856;26.318;2023-05-07T12:11:21;1.8;1.4;1.2
45788;PMS7003;31492;54.856;26.318;2023-05-07T12:16:30;1.7;1.3;1
45788;PMS7003;31492;54.856;26.318;2023-05-07T12:21:16;1.4;1;0.9
45788;PMS7003;31492;54.856;26.318;2023-05-07T12:26:26;1.9;1.5;1.1
45788;PMS7003;31492;54.856;26.318;2023-05-07T12:31:48;1.5;1.2;1.1
45788;PMS7003;31492;54.856;26.318;2023-05-07T12:36:22;1.7;1.3;1
45788;PMS7003;31492;54.856;26.318;2023-05-07T12:41:55;1.5;1.2;0.9
45788;PMS7003;31492;54.856;26.318;2023-05-07T12:46:16;1.4;1.3;1
45788;PMS7003;31492;54.856;26.318;2023-05-07T12:51:22;1.4;1.2;0.9
45788;PMS7003;31492;54.856;26.318;2023-05-07T12:56:16;1.8;1.1;0.9
45788;PMS7003;31492;54.856;26.318;2023-05-07T13:01:30;1.6;1.2;1
45788;PMS7003;31492;54.856;26.318;2023-05-07T13:06:32;1.4;1.2;1
45788;PMS7003;31492;54.856;26.318;2023-05-07T13:11:44;2;1.7;1.3
45788;PMS7003;31492;54.856;26.318;2023-05-07T13:16:16;1.8;1.4;1.1
45788;PMS7003;31492;54.856;26.318;2023-05-07T13:21:16;1.8;1.3;0.9
45788;PMS7003;31492;54.856;26.318;2023-05-07T13:26:30;1.7;1.6;1.2
45788;PMS7003;31492;54.856;26.318;2023-05-07T13:31:16;1.9;1.6;1.1
45788;PMS7003;31492;54.856;26.318;2023-05-07T13:36:16;1.6;1.3;0.9
45788;PMS7003;31492;54.856;26.318;2023-05-07T13:41:36;1.3;1.3;1
45788;PMS7003;31492;54.856;26.318;2023-05-07T13:46:30;1.7;1.1;0.9
45788;PMS7003;31492;54.856;26.318;2023-05-07T13:51:16;1.4;1.4;1.3
45788;PMS7003;31492;54.856;26.318;2023-05-07T13:56:16;1.8;1.4;1.1
45788;PMS7003;31492;54.856;26.318;2023-05-07T14:01:16;1.3;1.2;1
45788;PMS7003;31492;54.856;26.318;2023-05-07T14:06:30;1.8;1.3;1.1
45788;PMS7003;31492;54.856;26.318;2023-05-07T14:11:44;1.6;1.3;1
45788;PMS7003;31492;54.856;26.318;2023-05-07T14:16:16;2.2;1.5;1.3
45788;PMS7003;31492;54.856;26.318;2023-05-07T14:21:26;2.2;1.8;1.3
45788;PMS7003;31492;54.856;26.318;2023-05-07T14:26:44;1.4;1.1;1
45788;PMS7003;31492;54.856;26.318;2023-05-07T14:31:16;2.1;1.6;1.3
45788;PMS7003;31492;54.856;26.318;2023-05-07T14:36:16;2.4;1.5;1.1
45788;PMS7003;31492;54.856;26.318;2023-05-07T14:41:40;1.5;1.2;1
45788;PMS7003;31492;54.856;26.318;2023-05-07T14:46:36;2.3;1.9;1.5
45788;PMS7003;31492;54.856;26.318;2023-05-07T14:51:16;1.5;1.4;1.1
45788;PMS7003;31492;54.856;26.318;2023-05-07T14:56:30;1.9;1.4;1.1
45788;PMS7003;31492;54.856;26.318;2023-05-07T15:01:46;2.2;1.6;1.3
45788;PMS7003;31492;54.856;26.318;2023-05-07T15:06:16;2;1.6;1.2
45788;PMS7003;31492;54.856;26.318;2023-05-07T15:11:16;2;1.3;1.2
45788;PMS7003;31492;54.856;26.318;2023-05-07T15:16:16;1.5;1.5;1.2
45788;PMS7003;31492;54.856;26.318;2023-05-07T15:21:16;2.3;1.6;1.1
45788;PMS7003;31492;54.856;26.318;2023-05-07T15:26:22;1.6;1.5;1.1
45788;PMS7003;31492;54.856;26.318;2023-05-07T15:31:16;2.1;1.4;1.1
45788;PMS7003;31492;54.856;26.318;2023-05-07T15:36:16;2.3;1.8;1.4
45788;PMS7003;31492;54.856;26.318;2023-05-07T15:41:16;2.2;1.9;1.7
45788;PMS7003;31492;54.856;26.318;2023-05-07T15:46:30;2.1;1.6;1.2
45788;PMS7003;31492;54.856;26.318;2023-05-07T15:51:30;2.3;1.6;1.2
45788;PMS7003;31492;54.856;26.318;2023-05-07T15:56:30;1.9;1.6;1.3
45788;PMS7003;31492;54.856;26.318;2023-05-07T16:01:26;5.4;2.8;1.7
45788;PMS7003;31492;54.856;26.318;2023-05-07T16:06:16;2.4;1.8;1.4
45788;PMS7003;31492;54.856;26.318;2023-05-07T16:11:16;1.9;1.7;1.3
45788;PMS7003;31492;54.856;26.318;2023-05-07T16:17:04;1.8;1.6;1.2
45788;PMS7003;31492;54.856;26.318;2023-05-07T16:21:16;1.9;1.6;1.3
45788;PMS7003;31492;54.856;26.318;2023-05-07T16:26:22;2.6;1.7;1.2
45788;PMS7003;31492;54.856;26.318;2023-05-07T16:31:30;2.1;1.5;1.1
45788;PMS7003;31492;54.856;26.318;2023-05-07T16:36:16;2;1.6;1.2
45788;PMS7003;31492;54.856;26.318;2023-05-07T16:41:26;2.4;1.9;1.5
45788;PMS7003;31492;54.856;26.318;2023-05-07T16:46:36;1.9;1.6;1.4
45788;PMS7003;31492;54.856;26.318;2023-05-07T16:51:30;2.7;2;1.6
45788;PMS7003;31492;54.856;26.318;2023-05-07T16:56:16;2.4;1.9;1.4
45788;PMS7003;31492;54.856;26.318;2023-05-07T17:01:30;17.5;15.8;12.8
45788;PMS7003;31492;54.856;26.318;2023-05-07T17:06:24;3.7;3;2.5
45788;PMS7003;31492;54.856;26.318;2023-05-07T17:11:42;2.8;2.2;1.7
45788;PMS7003;31492;54.856;26.318;2023-05-07T17:16:44;2.7;2.1;1.7
45788;PMS7003;31492;54.856;26.318;2023-05-07T17:21:16;5;2.8;2
45788;PMS7003;31492;54.856;26.318;2023-05-07T17:26:24;3.6;2.1;1.5
45788;PMS7003;31492;54.856;26.318;2023-05-07T17:31:16;2.7;2.3;1.8
45788;PMS7003;31492;54.856;26.318;2023-05-07T17:36:16;3.6;2.8;2.4
45788;PMS7003;31492;54.856;26.318;2023-05-07T17:41:33;4;2.5;1.9
45788;PMS7003;31492;54.856;26.318;2023-05-07T17:46:16;3;2.4;1.9
45788;PMS7003;31492;54.856;26.318;2023-05-07T17:51:36;3;2.7;2.1
45788;PMS7003;31492;54.856;26.318;2023-05-07T17:56:16;2.7;2.3;1.8
45788;PMS7003;31492;54.856;26.318;2023-05-07T18:01:40;3.2;2.8;2.1
45788;PMS7003;31492;54.856;26.318;2023-05-07T18:06:16;27.2;21.5;14.4
45788;PMS7003;31492;54.856;26.318;2023-05-07T18:11:16;52.1;41.8;28
45788;PMS7003;31492;54.856;26.318;2023-05-07T18:16:22;83.4;69.1;43.3
45788;PMS7003;31492;54.856;26.318;2023-05-07T18:21:56;87.8;72;44.6
45788;PMS7003;31492;54.856;26.318;2023-05-07T18:26:30;100.9;85.9;53.8
45788;PMS7003;31492;54.856;26.318;2023-05-07T18:31:30;57.5;46.9;30.2
45788;PMS7003;31492;54.856;26.318;2023-05-07T18:36:22;68.3;55;35.4
45788;PMS7003;31492;54.856;26.318;2023-05-07T18:41:16;31.6;26.4;18.5
45788;PMS7003;31492;54.856;26.318;2023-05-07T18:46:16;7;6.1;5.1
45788;PMS7003;31492;54.856;26.318;2023-05-07T18:51:16;5.1;4.1;3.4
45788;PMS7003;31492;54.856;26.318;2023-05-07T18:56:16;5.1;4.1;3.3
45788;PMS7003;31492;54.856;26.318;2023-05-07T19:01:38;6;5;4
45788;PMS7003;31492;54.856;26.318;2023-05-07T19:06:16;6;5.3;4.3
45788;PMS7003;31492;54.856;26.318;2023-05-07T19:11:30;6.8;5.9;4.8
45788;PMS7003;31492;54.856;26.318;2023-05-07T19:16:24;8.7;7.2;5.3
45788;PMS7003;31492;54.856;26.318;2023-05-07T19:21:16;7.5;6.8;5.4
45788;PMS7003;31492;54.856;26.318;2023-05-07T19:26:38;8.1;7.2;5.6
45788;PMS7003;31492;54.856;26.318;2023-05-07T19:31:22;6.4;5.6;4.3
45788;PMS7003;31492;54.856;26.318;2023-05-07T19:36:16;6.8;5;4.2
45788;PMS7003;31492;54.856;26.318;2023-05-07T19:41:44;6;5;4
45788;PMS7003;31492;54.856;26.318;2023-05-07T19:46:26;6.2;5.3;4.2
45788;PMS7003;31492;54.856;26.318;2023-05-07T19:51:16;6.4;5.8;4.5
45788;PMS7003;31492;54.856;26.318;2023-05-07T19:56:40;6.4;5.7;4.6
45788;PMS7003;31492;54.856;26.318;2023-05-07T20:01:26;7.2;6.1;5
45788;PMS7003;31492;54.856;26.318;2023-05-07T20:06:36;9.9;8.5;6.5
45788;PMS7003;31492;54.856;26.318;2023-05-07T20:11:32;10.9;9.2;7.1
45788;PMS7003;31492;54.856;26.318;2023-05-07T20:16:26;12.1;10.2;7.5
45788;PMS7003;31492;54.856;26.318;2023-05-07T20:21:16;11.8;9.3;7
45788;PMS7003;31492;54.856;26.318;2023-05-07T20:26:16;9.4;8;6.4
45788;PMS7003;31492;54.856;26.318;2023-05-07T20:31:38;11.3;9.3;7.3
45788;PMS7003;31492;54.856;26.318;2023-05-07T20:36:42;13.2;10.6;8
45788;PMS7003;31492;54.856;26.318;2023-05-07T20:41:30;16.2;13.6;9.6
45788;PMS7003;31492;54.856;26.318;2023-05-07T20:46:26;16.3;14.3;10.5
45788;PMS7003;31492;54.856;26.318;2023-05-07T20:51:30;14.8;12.5;9.3
45788;PMS7003;31492;54.856;26.318;2023-05-07T20:56:22;12.4;10.3;7.2
45788;PMS7003;31492;54.856;26.318;2023-05-07T21:01:16;8.8;7.7;5.8
45788;PMS7003;31492;54.856;26.318;2023-05-07T21:06:16;8.2;6.7;5.5
45788;PMS7003;31492;54.856;26.318;2023-05-07T21:11:26;7;6;4.8
45788;PMS7003;31492;54.856;26.318;2023-05-07T21:16:16;7.8;6.4;5.2
45788;PMS7003;31492;54.856;26.318;2023-05-07T21:21:36;8.1;6.9;5.3
45788;PMS7003;31492;54.856;26.318;2023-05-07T21:26:40;7.6;6.3;5
45788;PMS7003;31492;54.856;26.318;2023-05-07T21:31:16;8.7;6.5;5.3
45788;PMS7003;31492;54.856;26.318;2023-05-07T21:36:16;8.4;7.1;5.3
45788;PMS7003;31492;54.856;26.318;2023-05-07T21:41:16;8;6.3;4.8
45788;PMS7003;31492;54.856;26.318;2023-05-07T21:46:16;6;5.3;4
45788;PMS7003;31492;54.856;26.318;2023-05-07T21:51:16;7.9;6.8;5.3
45788;PMS7003;31492;54.856;26.318;2023-05-07T21:56:30;8.3;6.8;5.1
45788;PMS7003;31492;54.856;26.318;2023-05-07T22:01:16;6.7;5.5;4.3
45788;PMS7003;31492;54.856;26.318;2023-05-07T22:06:16;7.3;5.5;4.5
45788;PMS7003;31492;54.856;26.318;2023-05-07T22:11:16;6.8;5.9;4.5
45788;PMS7003;31492;54.856;26.318;2023-05-07T22:16:16;6.8;6.1;4.8
45788;PMS7003;31492;54.856;26.318;2023-05-07T22:21:26;6.5;5.8;4.6
45788;PMS7003;31492;54.856;26.318;2023-05-07T22:26:26;7.8;5.9;4.8
45788;PMS7003;31492;54.856;26.318;2023-05-07T22:31:16;7.5;6.2;4.8
45788;PMS7003;31492;54.856;26.318;2023-05-07T22:36:36;6.6;5.3;4.4
45788;PMS7003;31492;54.856;26.318;2023-05-07T22:41:30;6.3;5.6;4.4
45788;PMS7003;31492;54.856;26.318;2023-05-07T22:46:30;7;5.1;4.2
45788;PMS7003;31492;54.856;26.318;2023-05-07T22:51:16;6.9;5.7;4.6
45788;PMS7003;31492;54.856;26.318;2023-05-07T22:56:36;7.8;6;4.6
45788;PMS7003;31492;54.856;26.318;2023-05-07T23:01:16;7.3;5.7;4.5
45788;PMS7003;31492;54.856;26.318;2023-05-07T23:06:16;6.7;5.6;4.6
45788;PMS7003;31492;54.856;26.318;2023-05-07T23:11:30;7.1;6.2;4.8
45788;PMS7003;31492;54.856;26.318;2023-05-07T23:16:30;7.5;6.4;4.7
45788;PMS7003;31492;54.856;26.318;2023-05-07T23:21:26;7.8;7.4;5.3
45788;PMS7003;31492;54.856;26.318;2023-05-07T23:26:16;7.6;6.2;4.9
45788;PMS7003;31492;54.856;26.318;2023-05-07T23:31:22;7.9;5.9;4.6
45788;PMS7003;31492;54.856;26.318;2023-05-07T23:36:34;7.4;5.9;4.5
45788;PMS7003;31492;54.856;26.318;2023-05-07T23:41:44;7.3;6.3;4.8
45788;PMS7003;31492;54.856;26.318;2023-05-07T23:46:40;7.1;5.9;4.6
45788;PMS7003;31492;54.856;26.318;2023-05-07T23:51:34;7.7;6.4;5.1
45788;PMS7003;31492;54.856;26.318;2023-05-07T23:56:30;7.6;6.1;4.8
